sensor_id;sensor_type;location;lat;lon;timestamp;temperature;humidity
21199;DHT22;10757;51.038;3.712;2022-12-29T00:02:14;12.40;99.90
21199;DHT22;10757;51.038;3.712;2022-12-29T00:04:40;12.50;99.90
21199;DHT22;10757;51.038;3.712;2022-12-29T00:07:06;12.50;99.90
21199;DHT22;10757;51.038;3.712;2022-12-29T00:09:33;12.60;99.90
21199;DHT22;10757;51.038;3.712;2022-12-29T00:12:00;12.60;99.90
21199;DHT22;10757;51.038;3.712;2022-12-29T00:14:26;12.70;99.90
21199;DHT22;10757;51.038;3.712;2022-12-29T00:17:11;12.80;99.90
21199;DHT22;10757;51.038;3.712;2022-12-29T00:19:37;12.80;99.90
21199;DHT22;10757;51.038;3.712;2022-12-29T00:22:21;12.80;99.90
21199;DHT22;10757;51.038;3.712;2022-12-29T00:25:08;12.80;99.90
21199;DHT22;10757;51.038;3.712;2022-12-29T00:27:34;12.80;99.90
21199;DHT22;10757;51.038;3.712;2022-12-29T00:30:21;12.90;99.90
21199;DHT22;10757;51.038;3.712;2022-12-29T00:33:18;12.90;99.90
21199;DHT22;10757;51.038;3.712;2022-12-29T00:38:35;12.90;99.90
21199;DHT22;10757;51.038;3.712;2022-12-29T00:41:21;13.00;99.90
21199;DHT22;10757;51.038;3.712;2022-12-29T00:44:07;12.90;99.90
21199;DHT22;10757;51.038;3.712;2022-12-29T00:46:40;12.80;99.90
21199;DHT22;10757;51.038;3.712;2022-12-29T00:49:08;12.80;99.90
21199;DHT22;10757;51.038;3.712;2022-12-29T00:52:04;12.80;99.90
21199;DHT22;10757;51.038;3.712;2022-12-29T00:54:36;12.90;99.90
21199;DHT22;10757;51.038;3.712;2022-12-29T00:57:04;13.00;99.90
21199;DHT22;10757;51.038;3.712;2022-12-29T00:59:30;12.90;99.90
21199;DHT22;10757;51.038;3.712;2022-12-29T01:01:57;12.90;99.90
21199;DHT22;10757;51.038;3.712;2022-12-29T01:04:24;12.90;99.90
21199;DHT22;10757;51.038;3.712;2022-12-29T01:06:51;13.00;99.90
21199;DHT22;10757;51.038;3.712;2022-12-29T01:09:17;13.00;99.90
21199;DHT22;10757;51.038;3.712;2022-12-29T01:12:03;13.00;99.90
21199;DHT22;10757;51.038;3.712;2022-12-29T01:14:29;13.00;99.90
21199;DHT22;10757;51.038;3.712;2022-12-29T01:16:55;13.00;99.90
21199;DHT22;10757;51.038;3.712;2022-12-29T01:19:22;13.00;99.90
21199;DHT22;10757;51.038;3.712;2022-12-29T01:21:48;13.20;99.90
21199;DHT22;10757;51.038;3.712;2022-12-29T01:24:15;13.10;99.90
21199;DHT22;10757;51.038;3.712;2022-12-29T01:26:41;13.10;99.90
21199;DHT22;10757;51.038;3.712;2022-12-29T01:29:07;13.10;99.90
21199;DHT22;10757;51.038;3.712;2022-12-29T01:31:33;13.20;99.90
21199;DHT22;10757;51.038;3.712;2022-12-29T01:33:59;13.30;99.90
21199;DHT22;10757;51.038;3.712;2022-12-29T01:36:25;13.20;99.90
21199;DHT22;10757;51.038;3.712;2022-12-29T01:38:51;13.10;99.90
21199;DHT22;10757;51.038;3.712;2022-12-29T01:41:17;13.10;99.90
21199;DHT22;10757;51.038;3.712;2022-12-29T01:43:56;13.20;99.90
21199;DHT22;10757;51.038;3.712;2022-12-29T01:46:26;13.10;99.90
21199;DHT22;10757;51.038;3.712;2022-12-29T01:49:14;13.00;99.90
21199;DHT22;10757;51.038;3.712;2022-12-29T01:51:51;13.00;99.90
21199;DHT22;10757;51.038;3.712;2022-12-29T01:54:26;12.90;99.90
21199;DHT22;10757;51.038;3.712;2022-12-29T01:56:55;12.90;99.90
21199;DHT22;10757;51.038;3.712;2022-12-29T01:59:26;12.90;99.90
21199;DHT22;10757;51.038;3.712;2022-12-29T02:01:53;12.90;99.90
21199;DHT22;10757;51.038;3.712;2022-12-29T02:04:19;13.00;99.90
21199;DHT22;10757;51.038;3.712;2022-12-29T02:06:52;13.00;99.90
21199;DHT22;10757;51.038;3.712;2022-12-29T02:09:18;13.00;99.90
21199;DHT22;10757;51.038;3.712;2022-12-29T02:11:44;13.00;99.90
21199;DHT22;10757;51.038;3.712;2022-12-29T02:14:13;12.90;99.90
21199;DHT22;10757;51.038;3.712;2022-12-29T02:33:37;12.80;99.90
21199;DHT22;10757;51.038;3.712;2022-12-29T02:39:20;12.70;99.90
21199;DHT22;10757;51.038;3.712;2022-12-29T02:50:26;12.70;99.90
21199;DHT22;10757;51.038;3.712;2022-12-29T02:52:59;12.80;99.90
21199;DHT22;10757;51.038;3.712;2022-12-29T02:55:26;12.70;99.90
21199;DHT22;10757;51.038;3.712;2022-12-29T02:58:21;12.60;99.90
21199;DHT22;10757;51.038;3.712;2022-12-29T03:11:51;12.80;99.90
21199;DHT22;10757;51.038;3.712;2022-12-29T03:14:59;12.70;99.90
21199;DHT22;10757;51.038;3.712;2022-12-29T03:17:58;12.70;99.90
21199;DHT22;10757;51.038;3.712;2022-12-29T03:20:39;12.80;99.90
21199;DHT22;10757;51.038;3.712;2022-12-29T03:23:07;12.60;99.90
21199;DHT22;10757;51.038;3.712;2022-12-29T03:25:40;12.50;99.90
21199;DHT22;10757;51.038;3.712;2022-12-29T03:28:14;12.50;99.90
21199;DHT22;10757;51.038;3.712;2022-12-29T03:30:42;12.40;99.90
21199;DHT22;10757;51.038;3.712;2022-12-29T03:33:11;12.20;99.90
21199;DHT22;10757;51.038;3.712;2022-12-29T03:35:41;12.30;99.90
21199;DHT22;10757;51.038;3.712;2022-12-29T03:38:18;12.40;99.90
21199;DHT22;10757;51.038;3.712;2022-12-29T03:40:52;12.20;99.90
21199;DHT22;10757;51.038;3.712;2022-12-29T03:43:18;12.10;99.90
21199;DHT22;10757;51.038;3.712;2022-12-29T03:45:44;12.30;99.90
21199;DHT22;10757;51.038;3.712;2022-12-29T03:48:09;12.40;99.90
21199;DHT22;10757;51.038;3.712;2022-12-29T03:50:35;12.40;99.90
21199;DHT22;10757;51.038;3.712;2022-12-29T03:53:01;12.40;99.90
21199;DHT22;10757;51.038;3.712;2022-12-29T03:55:26;12.30;99.90
21199;DHT22;10757;51.038;3.712;2022-12-29T03:57:52;12.50;99.90
21199;DHT22;10757;51.038;3.712;2022-12-29T04:00:18;12.50;99.90
21199;DHT22;10757;51.038;3.712;2022-12-29T04:02:43;12.30;99.90
21199;DHT22;10757;51.038;3.712;2022-12-29T04:05:09;12.30;99.90
21199;DHT22;10757;51.038;3.712;2022-12-29T04:07:34;12.30;99.90
21199;DHT22;10757;51.038;3.712;2022-12-29T04:10:00;12.40;99.90
21199;DHT22;10757;51.038;3.712;2022-12-29T04:12:26;12.40;99.90
21199;DHT22;10757;51.038;3.712;2022-12-29T04:14:51;12.30;99.90
21199;DHT22;10757;51.038;3.712;2022-12-29T04:17:17;12.30;99.90
21199;DHT22;10757;51.038;3.712;2022-12-29T04:19:43;12.10;99.90
21199;DHT22;10757;51.038;3.712;2022-12-29T04:22:08;12.30;99.90
21199;DHT22;10757;51.038;3.712;2022-12-29T04:24:34;12.30;99.90
21199;DHT22;10757;51.038;3.712;2022-12-29T04:27:00;12.30;99.90
21199;DHT22;10757;51.038;3.712;2022-12-29T04:29:25;12.40;99.90
21199;DHT22;10757;51.038;3.712;2022-12-29T04:31:51;12.50;99.90
21199;DHT22;10757;51.038;3.712;2022-12-29T04:34:17;12.30;99.90
21199;DHT22;10757;51.038;3.712;2022-12-29T04:36:42;12.20;99.90
21199;DHT22;10757;51.038;3.712;2022-12-29T04:39:08;12.10;99.90
21199;DHT22;10757;51.038;3.712;2022-12-29T04:41:34;12.20;99.90
21199;DHT22;10757;51.038;3.712;2022-12-29T04:43:59;12.20;99.90
21199;DHT22;10757;51.038;3.712;2022-12-29T04:46:25;12.00;99.90
21199;DHT22;10757;51.038;3.712;2022-12-29T04:48:50;12.00;99.90
21199;DHT22;10757;51.038;3.712;2022-12-29T04:51:16;12.10;99.90
21199;DHT22;10757;51.038;3.712;2022-12-29T04:53:42;12.10;99.90
21199;DHT22;10757;51.038;3.712;2022-12-29T04:56:08;12.30;99.90
21199;DHT22;10757;51.038;3.712;2022-12-29T04:58:34;12.00;99.90
21199;DHT22;10757;51.038;3.712;2022-12-29T05:01:00;12.10;99.90
21199;DHT22;10757;51.038;3.712;2022-12-29T05:03:26;12.00;99.90
21199;DHT22;10757;51.038;3.712;2022-12-29T05:05:55;12.00;99.90
21199;DHT22;10757;51.038;3.712;2022-12-29T05:08:21;12.10;99.90
21199;DHT22;10757;51.038;3.712;2022-12-29T05:10:47;12.10;99.90
21199;DHT22;10757;51.038;3.712;2022-12-29T05:13:15;12.20;99.90
21199;DHT22;10757;51.038;3.712;2022-12-29T05:15:40;12.00;99.90
21199;DHT22;10757;51.038;3.712;2022-12-29T05:18:06;12.10;99.90
21199;DHT22;10757;51.038;3.712;2022-12-29T05:20:31;12.20;99.90
21199;DHT22;10757;51.038;3.712;2022-12-29T05:22:57;12.10;99.90
21199;DHT22;10757;51.038;3.712;2022-12-29T05:25:23;12.20;99.90
21199;DHT22;10757;51.038;3.712;2022-12-29T05:27:48;12.20;99.90
21199;DHT22;10757;51.038;3.712;2022-12-29T05:30:14;12.10;99.90
21199;DHT22;10757;51.038;3.712;2022-12-29T05:32:39;12.10;99.90
21199;DHT22;10757;51.038;3.712;2022-12-29T05:35:05;11.90;99.90
21199;DHT22;10757;51.038;3.712;2022-12-29T05:37:31;11.90;99.90
21199;DHT22;10757;51.038;3.712;2022-12-29T05:39:57;12.00;99.90
21199;DHT22;10757;51.038;3.712;2022-12-29T05:42:24;12.00;99.90
21199;DHT22;10757;51.038;3.712;2022-12-29T05:44:50;11.90;99.90
21199;DHT22;10757;51.038;3.712;2022-12-29T05:47:19;11.90;99.90
21199;DHT22;10757;51.038;3.712;2022-12-29T05:49:44;11.90;99.90
21199;DHT22;10757;51.038;3.712;2022-12-29T05:52:10;11.90;99.90
21199;DHT22;10757;51.038;3.712;2022-12-29T05:54:36;12.10;99.90
21199;DHT22;10757;51.038;3.712;2022-12-29T05:57:01;11.90;99.90
21199;DHT22;10757;51.038;3.712;2022-12-29T05:59:27;12.00;99.90
21199;DHT22;10757;51.038;3.712;2022-12-29T06:01:53;11.90;99.90
21199;DHT22;10757;51.038;3.712;2022-12-29T06:04:18;12.00;99.90
21199;DHT22;10757;51.038;3.712;2022-12-29T06:06:44;12.00;99.90
21199;DHT22;10757;51.038;3.712;2022-12-29T06:09:10;12.00;99.90
21199;DHT22;10757;51.038;3.712;2022-12-29T06:11:36;12.20;99.90
21199;DHT22;10757;51.038;3.712;2022-12-29T06:14:02;12.00;99.90
21199;DHT22;10757;51.038;3.712;2022-12-29T06:16:28;12.00;99.90
21199;DHT22;10757;51.038;3.712;2022-12-29T06:18:54;12.00;99.90
21199;DHT22;10757;51.038;3.712;2022-12-29T06:21:19;12.00;99.90
21199;DHT22;10757;51.038;3.712;2022-12-29T06:23:45;12.10;99.90
21199;DHT22;10757;51.038;3.712;2022-12-29T06:26:11;12.10;99.90
21199;DHT22;10757;51.038;3.712;2022-12-29T06:28:37;12.10;99.90
21199;DHT22;10757;51.038;3.712;2022-12-29T06:31:02;12.20;99.90
21199;DHT22;10757;51.038;3.712;2022-12-29T06:33:29;12.20;99.90
21199;DHT22;10757;51.038;3.712;2022-12-29T06:35:54;12.10;99.90
21199;DHT22;10757;51.038;3.712;2022-12-29T06:38:20;12.20;99.90
21199;DHT22;10757;51.038;3.712;2022-12-29T06:40:46;12.20;99.90
21199;DHT22;10757;51.038;3.712;2022-12-29T06:43:11;12.10;99.90
21199;DHT22;10757;51.038;3.712;2022-12-29T06:45:40;12.00;99.90
21199;DHT22;10757;51.038;3.712;2022-12-29T06:48:06;11.90;99.90
21199;DHT22;10757;51.038;3.712;2022-12-29T06:50:32;12.00;99.90
21199;DHT22;10757;51.038;3.712;2022-12-29T06:52:58;11.90;99.90
21199;DHT22;10757;51.038;3.712;2022-12-29T06:55:23;11.70;99.90
21199;DHT22;10757;51.038;3.712;2022-12-29T06:57:49;11.70;99.90
21199;DHT22;10757;51.038;3.712;2022-12-29T07:00:15;11.90;99.90
21199;DHT22;10757;51.038;3.712;2022-12-29T07:02:42;11.80;99.90
21199;DHT22;10757;51.038;3.712;2022-12-29T07:05:08;11.90;99.90
21199;DHT22;10757;51.038;3.712;2022-12-29T07:07:34;11.90;99.90
21199;DHT22;10757;51.038;3.712;2022-12-29T07:10:00;12.00;99.90
21199;DHT22;10757;51.038;3.712;2022-12-29T07:12:26;11.80;99.90
21199;DHT22;10757;51.038;3.712;2022-12-29T07:14:51;11.90;99.90
21199;DHT22;10757;51.038;3.712;2022-12-29T07:17:17;12.00;99.90
21199;DHT22;10757;51.038;3.712;2022-12-29T07:19:43;11.90;99.90
21199;DHT22;10757;51.038;3.712;2022-12-29T07:22:09;11.90;99.90
21199;DHT22;10757;51.038;3.712;2022-12-29T07:24:35;12.00;99.90
21199;DHT22;10757;51.038;3.712;2022-12-29T07:27:01;12.00;99.90
21199;DHT22;10757;51.038;3.712;2022-12-29T07:29:26;12.10;99.90
21199;DHT22;10757;51.038;3.712;2022-12-29T07:31:52;12.00;99.90
21199;DHT22;10757;51.038;3.712;2022-12-29T07:34:18;11.90;99.90
21199;DHT22;10757;51.038;3.712;2022-12-29T07:36:43;11.90;99.90
21199;DHT22;10757;51.038;3.712;2022-12-29T07:39:09;12.00;99.90
21199;DHT22;10757;51.038;3.712;2022-12-29T07:41:34;12.00;99.90
21199;DHT22;10757;51.038;3.712;2022-12-29T07:44:00;11.90;99.90
21199;DHT22;10757;51.038;3.712;2022-12-29T07:46:27;12.00;99.90
21199;DHT22;10757;51.038;3.712;2022-12-29T07:48:52;12.10;99.90
21199;DHT22;10757;51.038;3.712;2022-12-29T07:51:18;12.00;99.90
21199;DHT22;10757;51.038;3.712;2022-12-29T07:53:43;12.00;99.90
21199;DHT22;10757;51.038;3.712;2022-12-29T07:56:09;11.90;99.90
21199;DHT22;10757;51.038;3.712;2022-12-29T07:58:35;11.90;99.90
21199;DHT22;10757;51.038;3.712;2022-12-29T08:01:00;11.80;99.90
21199;DHT22;10757;51.038;3.712;2022-12-29T08:03:26;11.80;99.90
21199;DHT22;10757;51.038;3.712;2022-12-29T08:05:52;12.00;99.90
21199;DHT22;10757;51.038;3.712;2022-12-29T08:08:18;12.00;99.90
21199;DHT22;10757;51.038;3.712;2022-12-29T08:10:43;11.70;99.90
21199;DHT22;10757;51.038;3.712;2022-12-29T08:13:09;11.80;99.90
21199;DHT22;10757;51.038;3.712;2022-12-29T08:15:34;11.80;99.90
21199;DHT22;10757;51.038;3.712;2022-12-29T08:18:03;11.90;99.90
21199;DHT22;10757;51.038;3.712;2022-12-29T08:20:28;11.90;99.90
21199;DHT22;10757;51.038;3.712;2022-12-29T08:22:54;11.80;99.90
21199;DHT22;10757;51.038;3.712;2022-12-29T08:25:20;11.90;99.90
21199;DHT22;10757;51.038;3.712;2022-12-29T08:27:45;11.80;99.90
21199;DHT22;10757;51.038;3.712;2022-12-29T08:30:19;11.80;99.90
21199;DHT22;10757;51.038;3.712;2022-12-29T08:32:51;11.60;99.90
21199;DHT22;10757;51.038;3.712;2022-12-29T08:35:17;11.50;99.90
21199;DHT22;10757;51.038;3.712;2022-12-29T08:37:44;11.50;99.90
21199;DHT22;10757;51.038;3.712;2022-12-29T08:40:10;11.50;99.90
21199;DHT22;10757;51.038;3.712;2022-12-29T08:42:35;11.50;99.90
21199;DHT22;10757;51.038;3.712;2022-12-29T08:45:01;11.20;99.90
21199;DHT22;10757;51.038;3.712;2022-12-29T08:47:30;11.40;99.90
21199;DHT22;10757;51.038;3.712;2022-12-29T08:49:56;11.40;99.90
21199;DHT22;10757;51.038;3.712;2022-12-29T08:52:22;11.40;99.90
21199;DHT22;10757;51.038;3.712;2022-12-29T08:54:48;11.30;99.90
21199;DHT22;10757;51.038;3.712;2022-12-29T08:57:14;11.30;99.90
21199;DHT22;10757;51.038;3.712;2022-12-29T08:59:40;11.30;99.90
21199;DHT22;10757;51.038;3.712;2022-12-29T09:02:10;11.10;99.90
21199;DHT22;10757;51.038;3.712;2022-12-29T09:04:37;11.00;99.90
21199;DHT22;10757;51.038;3.712;2022-12-29T09:07:03;11.20;99.90
21199;DHT22;10757;51.038;3.712;2022-12-29T09:09:28;11.20;99.90
21199;DHT22;10757;51.038;3.712;2022-12-29T09:11:55;11.30;99.90
21199;DHT22;10757;51.038;3.712;2022-12-29T09:14:28;11.20;99.90
21199;DHT22;10757;51.038;3.712;2022-12-29T09:16:55;11.20;99.90
21199;DHT22;10757;51.038;3.712;2022-12-29T09:19:39;11.00;99.90
21199;DHT22;10757;51.038;3.712;2022-12-29T09:22:06;11.10;99.90
21199;DHT22;10757;51.038;3.712;2022-12-29T09:24:33;11.10;99.90
21199;DHT22;10757;51.038;3.712;2022-12-29T09:27:01;11.30;99.90
21199;DHT22;10757;51.038;3.712;2022-12-29T09:29:29;11.20;99.90
21199;DHT22;10757;51.038;3.712;2022-12-29T09:31:55;11.30;99.90
21199;DHT22;10757;51.038;3.712;2022-12-29T09:34:22;11.40;99.90
21199;DHT22;10757;51.038;3.712;2022-12-29T09:36:50;11.60;99.90
21199;DHT22;10757;51.038;3.712;2022-12-29T09:39:17;11.50;99.90
21199;DHT22;10757;51.038;3.712;2022-12-29T09:41:52;11.50;99.90
21199;DHT22;10757;51.038;3.712;2022-12-29T09:47:01;11.60;99.90
21199;DHT22;10757;51.038;3.712;2022-12-29T09:49:49;11.60;99.90
21199;DHT22;10757;51.038;3.712;2022-12-29T09:52:21;11.60;99.90
21199;DHT22;10757;51.038;3.712;2022-12-29T09:55:01;11.50;99.90
21199;DHT22;10757;51.038;3.712;2022-12-29T09:57:52;11.30;99.90
21199;DHT22;10757;51.038;3.712;2022-12-29T10:00:38;11.30;99.90
21199;DHT22;10757;51.038;3.712;2022-12-29T10:03:19;11.30;99.90
21199;DHT22;10757;51.038;3.712;2022-12-29T10:16:54;11.40;99.90
21199;DHT22;10757;51.038;3.712;2022-12-29T10:22:04;11.50;99.90
21199;DHT22;10757;51.038;3.712;2022-12-29T10:24:38;11.70;99.90
21199;DHT22;10757;51.038;3.712;2022-12-29T10:27:11;11.70;99.90
21199;DHT22;10757;51.038;3.712;2022-12-29T10:29:43;11.80;99.90
21199;DHT22;10757;51.038;3.712;2022-12-29T10:32:36;11.80;99.90
21199;DHT22;10757;51.038;3.712;2022-12-29T10:35:36;11.80;99.90
21199;DHT22;10757;51.038;3.712;2022-12-29T10:43:37;11.90;99.90
21199;DHT22;10757;51.038;3.712;2022-12-29T10:46:10;11.80;99.90
21199;DHT22;10757;51.038;3.712;2022-12-29T10:48:37;11.80;99.90
21199;DHT22;10757;51.038;3.712;2022-12-29T10:51:08;11.80;99.90
21199;DHT22;10757;51.038;3.712;2022-12-29T10:54:03;12.00;99.90
21199;DHT22;10757;51.038;3.712;2022-12-29T10:56:33;12.10;99.90
21199;DHT22;10757;51.038;3.712;2022-12-29T10:59:07;12.10;99.90
21199;DHT22;10757;51.038;3.712;2022-12-29T11:01:41;11.90;99.90
21199;DHT22;10757;51.038;3.712;2022-12-29T11:06:58;12.20;99.90
21199;DHT22;10757;51.038;3.712;2022-12-29T11:09:29;12.20;99.90
21199;DHT22;10757;51.038;3.712;2022-12-29T11:11:57;12.20;99.90
21199;DHT22;10757;51.038;3.712;2022-12-29T11:14:29;12.20;99.90
21199;DHT22;10757;51.038;3.712;2022-12-29T11:17:09;12.30;99.90
21199;DHT22;10757;51.038;3.712;2022-12-29T11:19:40;12.30;99.90
21199;DHT22;10757;51.038;3.712;2022-12-29T11:22:24;12.40;99.90
21199;DHT22;10757;51.038;3.712;2022-12-29T11:24:53;12.50;99.90
21199;DHT22;10757;51.038;3.712;2022-12-29T11:27:27;12.60;99.90
21199;DHT22;10757;51.038;3.712;2022-12-29T11:29:54;12.60;99.90
21199;DHT22;10757;51.038;3.712;2022-12-29T11:32:26;12.50;99.90
21199;DHT22;10757;51.038;3.712;2022-12-29T11:34:53;12.40;99.90
21199;DHT22;10757;51.038;3.712;2022-12-29T11:37:31;12.40;99.90
21199;DHT22;10757;51.038;3.712;2022-12-29T11:40:28;12.40;99.90
21199;DHT22;10757;51.038;3.712;2022-12-29T11:42:56;12.50;99.90
21199;DHT22;10757;51.038;3.712;2022-12-29T11:45:30;12.50;99.90
21199;DHT22;10757;51.038;3.712;2022-12-29T11:48:16;12.50;99.90
21199;DHT22;10757;51.038;3.712;2022-12-29T11:50:43;12.20;99.90
21199;DHT22;10757;51.038;3.712;2022-12-29T11:55:56;11.60;99.90
21199;DHT22;10757;51.038;3.712;2022-12-29T11:58:34;11.40;99.90
21199;DHT22;10757;51.038;3.712;2022-12-29T12:01:18;11.30;99.90
21199;DHT22;10757;51.038;3.712;2022-12-29T12:04:07;11.40;99.90
21199;DHT22;10757;51.038;3.712;2022-12-29T12:06:45;11.20;99.90
21199;DHT22;10757;51.038;3.712;2022-12-29T12:09:22;11.40;99.90
21199;DHT22;10757;51.038;3.712;2022-12-29T12:11:52;11.30;99.90
21199;DHT22;10757;51.038;3.712;2022-12-29T12:14:39;11.30;99.90
21199;DHT22;10757;51.038;3.712;2022-12-29T12:17:14;11.40;99.90
21199;DHT22;10757;51.038;3.712;2022-12-29T12:22:41;11.50;99.90
21199;DHT22;10757;51.038;3.712;2022-12-29T12:25:20;11.40;99.90
21199;DHT22;10757;51.038;3.712;2022-12-29T12:28:11;11.50;99.90
21199;DHT22;10757;51.038;3.712;2022-12-29T12:30:49;11.40;99.90
21199;DHT22;10757;51.038;3.712;2022-12-29T12:33:31;11.60;99.90
21199;DHT22;10757;51.038;3.712;2022-12-29T12:37:02;11.60;99.90
21199;DHT22;10757;51.038;3.712;2022-12-29T12:50:15;12.00;99.90
21199;DHT22;10757;51.038;3.712;2022-12-29T12:59:20;11.90;99.90
21199;DHT22;10757;51.038;3.712;2022-12-29T13:04:43;11.70;99.90
21199;DHT22;10757;51.038;3.712;2022-12-29T13:13:00;11.70;99.90
21199;DHT22;10757;51.038;3.712;2022-12-29T13:23:55;11.50;99.90
21199;DHT22;10757;51.038;3.712;2022-12-29T13:37:36;11.20;99.90
21199;DHT22;10757;51.038;3.712;2022-12-29T13:40:13;11.20;99.90
21199;DHT22;10757;51.038;3.712;2022-12-29T13:42:41;11.10;99.90
21199;DHT22;10757;51.038;3.712;2022-12-29T13:45:13;11.10;99.90
21199;DHT22;10757;51.038;3.712;2022-12-29T13:47:47;11.20;99.90
21199;DHT22;10757;51.038;3.712;2022-12-29T13:50:23;11.30;99.90
21199;DHT22;10757;51.038;3.712;2022-12-29T13:55:55;11.40;99.90
21199;DHT22;10757;51.038;3.712;2022-12-29T13:58:44;11.40;99.90
21199;DHT22;10757;51.038;3.712;2022-12-29T14:01:17;11.30;99.90
21199;DHT22;10757;51.038;3.712;2022-12-29T14:03:56;11.30;99.90
21199;DHT22;10757;51.038;3.712;2022-12-29T14:06:31;11.30;99.90
21199;DHT22;10757;51.038;3.712;2022-12-29T14:09:03;11.40;99.90
21199;DHT22;10757;51.038;3.712;2022-12-29T14:11:42;11.20;99.90
21199;DHT22;10757;51.038;3.712;2022-12-29T14:14:28;11.20;99.90
21199;DHT22;10757;51.038;3.712;2022-12-29T14:17:10;11.10;99.90
21199;DHT22;10757;51.038;3.712;2022-12-29T14:19:42;11.30;99.90
21199;DHT22;10757;51.038;3.712;2022-12-29T14:22:10;11.20;99.90
21199;DHT22;10757;51.038;3.712;2022-12-29T14:24:45;11.10;99.90
21199;DHT22;10757;51.038;3.712;2022-12-29T14:34:52;11.20;99.90
21199;DHT22;10757;51.038;3.712;2022-12-29T14:37:31;11.20;99.90
21199;DHT22;10757;51.038;3.712;2022-12-29T14:40:18;11.20;99.90
21199;DHT22;10757;51.038;3.712;2022-12-29T14:42:47;11.10;99.90
21199;DHT22;10757;51.038;3.712;2022-12-29T14:47:44;10.90;99.90
21199;DHT22;10757;51.038;3.712;2022-12-29T14:58:15;11.00;99.90
21199;DHT22;10757;51.038;3.712;2022-12-29T15:00:52;10.90;99.90
21199;DHT22;10757;51.038;3.712;2022-12-29T15:03:48;10.90;99.90
21199;DHT22;10757;51.038;3.712;2022-12-29T15:06:17;11.00;99.90
21199;DHT22;10757;51.038;3.712;2022-12-29T15:12:15;11.00;99.90
21199;DHT22;10757;51.038;3.712;2022-12-29T15:14:56;10.90;99.90
21199;DHT22;10757;51.038;3.712;2022-12-29T15:17:33;10.70;99.90
21199;DHT22;10757;51.038;3.712;2022-12-29T15:22:56;10.80;99.90
21199;DHT22;10757;51.038;3.712;2022-12-29T15:25:25;10.80;99.90
21199;DHT22;10757;51.038;3.712;2022-12-29T15:27:54;10.90;99.90
21199;DHT22;10757;51.038;3.712;2022-12-29T15:30:22;10.90;99.90
21199;DHT22;10757;51.038;3.712;2022-12-29T15:32:49;10.90;99.90
21199;DHT22;10757;51.038;3.712;2022-12-29T15:35:36;10.80;99.90
21199;DHT22;10757;51.038;3.712;2022-12-29T15:38:20;10.60;99.90
21199;DHT22;10757;51.038;3.712;2022-12-29T15:40:53;10.40;99.90
21199;DHT22;10757;51.038;3.712;2022-12-29T15:46:16;10.60;99.90
21199;DHT22;10757;51.038;3.712;2022-12-29T15:48:43;10.60;99.90
21199;DHT22;10757;51.038;3.712;2022-12-29T15:51:22;10.60;99.90
21199;DHT22;10757;51.038;3.712;2022-12-29T15:53:52;10.40;99.90
21199;DHT22;10757;51.038;3.712;2022-12-29T15:56:19;10.40;99.90
21199;DHT22;10757;51.038;3.712;2022-12-29T15:58:49;10.40;99.90
21199;DHT22;10757;51.038;3.712;2022-12-29T16:01:45;10.40;99.90
21199;DHT22;10757;51.038;3.712;2022-12-29T16:04:10;10.30;99.90
21199;DHT22;10757;51.038;3.712;2022-12-29T16:06:39;10.20;99.90
21199;DHT22;10757;51.038;3.712;2022-12-29T16:09:32;10.10;99.90
21199;DHT22;10757;51.038;3.712;2022-12-29T16:12:07;10.00;99.90
21199;DHT22;10757;51.038;3.712;2022-12-29T16:14:44;10.10;99.90
21199;DHT22;10757;51.038;3.712;2022-12-29T16:17:15;10.00;99.90
21199;DHT22;10757;51.038;3.712;2022-12-29T16:19:43;9.80;99.90
21199;DHT22;10757;51.038;3.712;2022-12-29T16:25:02;9.90;99.90
21199;DHT22;10757;51.038;3.712;2022-12-29T16:27:31;9.70;99.90
21199;DHT22;10757;51.038;3.712;2022-12-29T16:30:07;9.80;99.90
21199;DHT22;10757;51.038;3.712;2022-12-29T16:32:45;9.90;99.90
21199;DHT22;10757;51.038;3.712;2022-12-29T16:35:17;9.90;99.90
21199;DHT22;10757;51.038;3.712;2022-12-29T16:37:44;9.70;99.90
21199;DHT22;10757;51.038;3.712;2022-12-29T16:42:49;9.80;99.90
21199;DHT22;10757;51.038;3.712;2022-12-29T16:47:47;9.80;99.90
21199;DHT22;10757;51.038;3.712;2022-12-29T16:50:17;9.70;99.90
21199;DHT22;10757;51.038;3.712;2022-12-29T16:52:48;9.80;99.90
21199;DHT22;10757;51.038;3.712;2022-12-29T16:55:17;9.70;99.90
21199;DHT22;10757;51.038;3.712;2022-12-29T16:57:44;9.80;99.90
21199;DHT22;10757;51.038;3.712;2022-12-29T17:00:28;9.70;99.90
21199;DHT22;10757;51.038;3.712;2022-12-29T17:02:58;9.70;99.90
21199;DHT22;10757;51.038;3.712;2022-12-29T17:05:24;9.60;99.90
21199;DHT22;10757;51.038;3.712;2022-12-29T17:07:50;9.70;99.90
21199;DHT22;10757;51.038;3.712;2022-12-29T17:10:16;9.70;99.90
21199;DHT22;10757;51.038;3.712;2022-12-29T17:12:44;9.70;99.90
21199;DHT22;10757;51.038;3.712;2022-12-29T17:15:30;9.70;99.90
21199;DHT22;10757;51.038;3.712;2022-12-29T17:18:00;9.90;99.90
21199;DHT22;10757;51.038;3.712;2022-12-29T17:20:28;9.90;99.90
21199;DHT22;10757;51.038;3.712;2022-12-29T17:22:55;9.70;99.90
21199;DHT22;10757;51.038;3.712;2022-12-29T17:25:35;9.80;99.90
21199;DHT22;10757;51.038;3.712;2022-12-29T17:31:03;9.90;99.90
21199;DHT22;10757;51.038;3.712;2022-12-29T17:33:35;10.00;99.90
21199;DHT22;10757;51.038;3.712;2022-12-29T17:36:01;10.00;99.90
21199;DHT22;10757;51.038;3.712;2022-12-29T17:38:29;9.90;99.90
21199;DHT22;10757;51.038;3.712;2022-12-29T17:40:55;9.90;99.90
21199;DHT22;10757;51.038;3.712;2022-12-29T17:43:21;10.00;99.90
21199;DHT22;10757;51.038;3.712;2022-12-29T17:45:57;10.00;99.90
21199;DHT22;10757;51.038;3.712;2022-12-29T17:48:24;10.00;99.90
21199;DHT22;10757;51.038;3.712;2022-12-29T17:50:51;9.80;99.90
21199;DHT22;10757;51.038;3.712;2022-12-29T17:53:22;10.00;99.90
21199;DHT22;10757;51.038;3.712;2022-12-29T17:55:48;10.10;99.90
21199;DHT22;10757;51.038;3.712;2022-12-29T17:58:18;10.10;99.90
21199;DHT22;10757;51.038;3.712;2022-12-29T18:00:49;10.10;99.90
21199;DHT22;10757;51.038;3.712;2022-12-29T18:03:18;10.00;99.90
21199;DHT22;10757;51.038;3.712;2022-12-29T18:05:44;9.90;99.90
21199;DHT22;10757;51.038;3.712;2022-12-29T18:08:11;9.90;99.90
21199;DHT22;10757;51.038;3.712;2022-12-29T18:10:37;9.90;99.90
21199;DHT22;10757;51.038;3.712;2022-12-29T18:13:08;10.00;99.90
21199;DHT22;10757;51.038;3.712;2022-12-29T18:15:40;10.00;99.90
21199;DHT22;10757;51.038;3.712;2022-12-29T18:18:11;10.10;99.90
21199;DHT22;10757;51.038;3.712;2022-12-29T18:20:38;10.00;99.90
21199;DHT22;10757;51.038;3.712;2022-12-29T18:23:04;10.00;99.90
21199;DHT22;10757;51.038;3.712;2022-12-29T18:25:40;10.10;99.90
21199;DHT22;10757;51.038;3.712;2022-12-29T18:28:07;10.00;99.90
21199;DHT22;10757;51.038;3.712;2022-12-29T18:30:32;10.00;99.90
21199;DHT22;10757;51.038;3.712;2022-12-29T18:32:59;10.00;99.90
21199;DHT22;10757;51.038;3.712;2022-12-29T18:35:29;10.00;99.90